createdAt,value
2018-02-03T00:01:30.872Z,0.95
2018-02-03T00:03:58.335Z,0.93
2018-02-03T00:06:25.793Z,0.91
2018-02-03T00:08:53.605Z,0.92
2018-02-03T00:11:21.116Z,0.93
2018-02-03T00:13:48.572Z,0.97
2018-02-03T00:16:16.556Z,1.06
2018-02-03T00:18:45.626Z,0.91
2018-02-03T00:21:13.111Z,0.72
2018-02-03T00:23:41.086Z,0.79
2018-02-03T00:26:08.548Z,0.90
2018-02-03T00:28:36.007Z,0.93
2018-02-03T00:31:03.843Z,0.84
2018-02-03T00:33:31.299Z,0.90
2018-02-03T00:35:58.778Z,0.97
2018-02-03T00:38:26.480Z,1.03
2018-02-03T00:40:53.945Z,1.14
2018-02-03T00:43:21.401Z,1.10
2018-02-03T00:45:48.993Z,1.05
2018-02-03T00:48:16.457Z,1.08
2018-02-03T00:50:43.920Z,1.11
2018-02-03T00:53:11.840Z,1.12
2018-02-03T00:55:39.577Z,1.14
2018-02-03T00:58:07.034Z,1.16
2018-02-03T01:00:34.833Z,1.21
2018-02-03T01:03:02.290Z,1.27
2018-02-03T01:05:29.755Z,1.31
2018-02-03T01:07:57.518Z,1.10
2018-02-03T01:10:24.975Z,1.08
2018-02-03T01:12:52.481Z,1.11
2018-02-03T01:15:20.197Z,1.25
2018-02-03T01:17:47.646Z,1.22
2018-02-03T01:20:16.427Z,1.16
2018-02-03T01:22:44.427Z,1.10
2018-02-03T01:25:11.878Z,1.21
2018-02-03T01:27:39.333Z,1.21
2018-02-03T01:30:07.112Z,0.99
2018-02-03T01:32:34.577Z,0.98
2018-02-03T01:35:02.042Z,0.92
2018-02-03T01:37:29.809Z,1.02
2018-02-03T01:39:57.268Z,1.06
2018-02-03T01:42:24.732Z,1.16
2018-02-03T01:44:52.487Z,1.07
2018-02-03T01:47:19.953Z,1.05
2018-02-03T01:49:47.413Z,0.96
2018-02-03T01:52:15.167Z,0.95
2018-02-03T01:54:42.629Z,1.06
2018-02-03T01:57:10.091Z,1.08
2018-02-03T01:59:38.009Z,1.07
2018-02-03T02:02:05.467Z,1.02
2018-02-03T02:04:32.925Z,0.81
2018-02-03T02:07:00.821Z,0.70
2018-02-03T02:09:28.272Z,0.71
2018-02-03T02:11:55.733Z,0.48
2018-02-03T02:14:23.540Z,0.41
2018-02-03T02:16:50.997Z,0.61
2018-02-03T02:19:18.457Z,0.76
2018-02-03T02:21:46.529Z,0.83
2018-02-03T02:24:13.987Z,0.88
2018-02-03T02:26:41.534Z,0.84
2018-02-03T02:29:09.528Z,0.85
2018-02-03T02:31:36.995Z,0.99
2018-02-03T02:34:04.461Z,1.22
2018-02-03T02:36:32.526Z,1.13
2018-02-03T02:38:59.981Z,0.96
2018-02-03T02:41:27.445Z,1.03
2018-02-03T02:43:55.212Z,0.96
2018-02-03T02:46:22.668Z,1.01
2018-02-03T02:48:50.144Z,0.94
2018-02-03T02:51:17.900Z,0.90
2018-02-03T02:53:45.364Z,0.92
2018-02-03T02:56:12.832Z,0.95
2018-02-03T02:58:40.588Z,0.95
2018-02-03T03:01:08.050Z,0.96
2018-02-03T03:03:35.505Z,0.95
2018-02-03T03:06:03.880Z,0.95
2018-02-03T03:08:31.340Z,1.04
2018-02-03T03:10:58.808Z,1.09
2018-02-03T03:13:26.592Z,1.01
2018-02-03T03:15:54.044Z,1.02
2018-02-03T03:18:21.505Z,1.13
2018-02-03T03:20:49.252Z,1.23
2018-02-03T03:23:17.316Z,1.16
2018-02-03T03:25:44.777Z,1.20
2018-02-03T03:28:12.555Z,1.28
2018-02-03T03:30:40.019Z,1.16
2018-02-03T03:33:07.486Z,1.12
2018-02-03T03:35:35.220Z,1.06
2018-02-03T03:38:02.681Z,1.13
2018-02-03T03:40:30.142Z,1.10
2018-02-03T03:42:58.573Z,1.10
2018-02-03T03:45:26.033Z,1.20
2018-02-03T03:47:53.484Z,1.09
2018-02-03T03:50:21.539Z,1.09
2018-02-03T03:52:48.988Z,1.12
2018-02-03T03:55:16.445Z,1.14
2018-02-03T03:57:44.152Z,1.40
2018-02-03T04:00:11.598Z,1.36
2018-02-03T04:02:39.062Z,1.39
2018-02-03T04:05:06.923Z,1.35
2018-02-03T04:07:34.385Z,1.32
2018-02-03T04:10:01.846Z,1.15
2018-02-03T04:12:29.610Z,1.20
2018-02-03T04:14:57.077Z,1.17
2018-02-03T04:17:24.526Z,0.95
2018-02-03T04:19:52.911Z,1.13
2018-02-03T04:22:20.373Z,1.24
2018-02-03T04:24:48.211Z,1.24
2018-02-03T04:27:15.927Z,1.28
2018-02-03T04:29:43.386Z,1.18
2018-02-03T04:32:10.833Z,1.09
2018-02-03T04:34:38.591Z,1.09
2018-02-03T04:37:06.057Z,1.04
2018-02-03T04:39:33.519Z,1.46
2018-02-03T04:42:01.893Z,1.34
2018-02-03T04:44:29.358Z,1.25
2018-02-03T04:46:57.199Z,1.09
2018-02-03T04:49:25.142Z,1.07
2018-02-03T04:51:52.604Z,0.83
2018-02-03T04:54:20.064Z,0.92
2018-02-03T04:56:48.181Z,1.01
2018-02-03T04:59:15.647Z,0.98
2018-02-03T05:08:26.464Z,1.06
2018-02-03T05:10:53.916Z,0.94
2018-02-03T05:13:21.369Z,0.79
2018-02-03T05:15:49.101Z,0.82
2018-02-03T05:18:16.557Z,0.83
2018-02-03T05:20:44.016Z,0.91
2018-02-03T05:23:11.844Z,0.91
2018-02-03T05:25:40.033Z,0.91
2018-02-03T05:28:07.485Z,0.97
2018-02-03T05:30:35.313Z,1.01
2018-02-03T05:33:02.773Z,1.16
2018-02-03T05:35:30.232Z,1.21
2018-02-03T05:37:57.811Z,1.25
2018-02-03T05:40:25.336Z,1.40
2018-02-03T05:42:52.801Z,1.54
2018-02-03T05:45:20.444Z,1.44
2018-02-03T05:47:47.903Z,1.61
2018-02-03T05:50:15.361Z,1.65
2018-02-03T05:52:42.992Z,1.68
2018-02-03T05:55:10.452Z,1.38
2018-02-03T05:57:37.908Z,1.51
2018-02-03T06:00:05.700Z,1.57
2018-02-03T06:02:33.161Z,1.61
2018-02-03T06:05:00.611Z,1.44
2018-02-03T06:07:28.263Z,1.53
2018-02-03T06:09:55.709Z,1.55
2018-02-03T06:12:23.164Z,1.44
2018-02-03T06:14:51.265Z,1.43
2018-02-03T06:17:18.840Z,1.33
2018-02-03T06:19:46.303Z,1.25
2018-02-03T06:22:14.303Z,1.28
2018-02-03T06:24:41.752Z,1.37
2018-02-03T06:27:09.861Z,1.21
2018-02-03T06:29:37.869Z,1.35
2018-02-03T06:32:05.328Z,1.20
2018-02-03T06:34:32.789Z,1.30
2018-02-03T06:37:00.502Z,1.28
2018-02-03T06:39:27.963Z,1.20
2018-02-03T06:41:55.416Z,1.36
2018-02-03T06:44:23.253Z,1.36
2018-02-03T06:46:51.261Z,1.45
2018-02-03T06:49:18.855Z,1.42
2018-02-03T06:51:46.861Z,1.48
2018-02-03T06:54:14.327Z,1.52
2018-02-03T06:56:41.784Z,1.52
2018-02-03T06:59:09.540Z,1.44
2018-02-03T07:01:36.996Z,1.66
2018-02-03T07:04:04.456Z,1.65
2018-02-03T07:06:32.218Z,1.77
2018-02-03T07:08:59.677Z,1.73
2018-02-03T07:11:27.126Z,1.86
2018-02-03T07:13:54.849Z,1.97
2018-02-03T07:16:22.306Z,2.02
2018-02-03T07:18:49.770Z,1.95
2018-02-03T07:21:17.602Z,1.88
2018-02-03T07:23:45.061Z,2.04
2018-02-03T07:26:12.832Z,2.19
2018-02-03T07:28:40.905Z,2.34
2018-02-03T07:31:08.370Z,2.18
2018-02-03T07:33:35.820Z,2.19
2018-02-03T07:36:03.400Z,2.19
2018-02-03T07:38:30.861Z,2.15
2018-02-03T07:40:58.316Z,2.17
2018-02-03T07:43:26.585Z,2.20
2018-02-03T07:45:54.036Z,2.28
2018-02-03T07:48:21.490Z,2.20
2018-02-03T07:50:49.573Z,2.21
2018-02-03T07:53:17.061Z,2.25
2018-02-03T07:55:44.522Z,2.16
2018-02-03T07:58:12.313Z,2.14
2018-02-03T08:00:39.940Z,2.03
2018-02-03T08:03:07.435Z,2.24
2018-02-03T08:05:35.257Z,2.12
2018-02-03T08:08:02.745Z,2.22
2018-02-03T08:10:30.222Z,2.40
2018-02-03T08:12:57.957Z,2.51
2018-02-03T08:15:25.431Z,2.52
2018-02-03T08:17:52.911Z,2.60
2018-02-03T08:20:20.649Z,2.71
2018-02-03T08:22:48.114Z,2.76
2018-02-03T08:25:15.581Z,2.73
2018-02-03T08:27:43.318Z,2.89
2018-02-03T08:30:11.159Z,3.27
2018-02-03T08:32:38.646Z,2.83
2018-02-03T08:35:06.627Z,2.85
2018-02-03T08:37:34.149Z,2.80
2018-02-03T08:40:01.614Z,2.77
2018-02-03T08:42:29.456Z,2.81
2018-02-03T08:44:56.914Z,2.67
2018-02-03T08:47:24.365Z,2.74
2018-02-03T08:49:52.361Z,2.51
2018-02-03T08:52:19.683Z,2.57
2018-02-03T08:54:47.143Z,2.55
2018-02-03T08:57:14.990Z,2.60
2018-02-03T08:59:42.441Z,2.71
2018-02-03T09:02:10.224Z,2.69
2018-02-03T09:04:37.977Z,2.74
2018-02-03T09:07:05.425Z,2.76
2018-02-03T09:09:32.880Z,2.89
2018-02-03T09:12:05.385Z,2.88
2018-02-03T09:14:32.817Z,2.88
2018-02-03T09:17:00.276Z,3.06
2018-02-03T09:19:27.969Z,3.01
2018-02-03T09:21:55.484Z,3.08
2018-02-03T09:24:22.949Z,3.21
2018-02-03T09:26:50.960Z,3.32
2018-02-03T09:29:18.413Z,3.22
2018-02-03T09:31:46.596Z,3.27
2018-02-03T09:34:14.302Z,3.34
2018-02-03T09:36:41.764Z,3.31
2018-02-03T09:39:09.230Z,3.59
2018-02-03T09:41:37.254Z,3.65
2018-02-03T09:44:04.705Z,3.48
2018-02-03T09:46:32.151Z,3.27
2018-02-03T09:48:59.937Z,3.22
2018-02-03T09:51:27.400Z,3.08
2018-02-03T09:53:54.857Z,3.20
2018-02-03T09:56:22.996Z,3.19
2018-02-03T09:58:50.428Z,3.34
2018-02-03T10:01:17.876Z,3.26
2018-02-03T10:03:45.932Z,3.31
2018-02-03T10:06:13.381Z,3.55
2018-02-03T10:08:40.828Z,3.45
2018-02-03T10:11:08.537Z,3.57
2018-02-03T10:13:36.000Z,3.59
2018-02-03T10:16:03.448Z,3.72
2018-02-03T10:18:31.300Z,3.64
2018-02-03T10:20:58.751Z,3.45
2018-02-03T10:23:27.143Z,3.73
2018-02-03T10:25:54.592Z,3.60
2018-02-03T10:28:22.116Z,3.64
2018-02-03T10:30:49.889Z,3.80
2018-02-03T10:33:17.402Z,3.82
2018-02-03T10:35:44.856Z,3.83
2018-02-03T10:38:13.130Z,3.90
2018-02-03T10:40:40.588Z,3.72
2018-02-03T10:43:08.032Z,3.84
2018-02-03T10:45:36.133Z,3.86
2018-02-03T10:48:03.591Z,3.84
2018-02-03T10:50:31.042Z,3.86
2018-02-03T10:52:58.812Z,3.83
2018-02-03T10:55:26.481Z,3.69
2018-02-03T10:57:54.048Z,3.86
2018-02-03T11:00:21.805Z,4.00
2018-02-03T11:02:49.252Z,4.06
2018-02-03T11:05:16.708Z,3.80
2018-02-03T11:07:44.500Z,3.92
2018-02-03T11:10:11.953Z,4.09
2018-02-03T11:12:39.403Z,4.04
2018-02-03T11:15:07.067Z,4.06
2018-02-03T11:17:34.535Z,4.30
2018-02-03T11:20:02.072Z,4.22
2018-02-03T11:22:29.920Z,4.15
2018-02-03T11:24:57.712Z,4.25
2018-02-03T11:27:25.156Z,4.11
2018-02-03T11:29:53.195Z,4.15
2018-02-03T11:32:20.647Z,4.11
2018-02-03T11:34:48.179Z,4.40
2018-02-03T11:37:16.471Z,4.34
2018-02-03T11:39:43.949Z,4.33
2018-02-03T11:42:11.886Z,4.42
2018-02-03T11:44:40.545Z,4.22
2018-02-03T11:47:08.002Z,4.38
2018-02-03T11:49:35.453Z,4.15
2018-02-03T11:52:03.390Z,4.36
2018-02-03T11:54:31.788Z,4.64
2018-02-03T11:56:59.580Z,4.44
2018-02-03T11:59:27.629Z,4.50
2018-02-03T12:01:55.097Z,4.48
2018-02-03T12:04:23.149Z,4.18
2018-02-03T12:06:52.348Z,4.42
2018-02-03T12:09:20.260Z,4.50
2018-02-03T12:11:47.980Z,4.26
2018-02-03T12:14:16.082Z,4.39
2018-02-03T12:16:43.546Z,4.51
2018-02-03T12:19:11.029Z,4.50
2018-02-03T12:21:38.734Z,4.31
2018-02-03T12:24:06.193Z,4.40
2018-02-03T12:26:34.356Z,4.49
2018-02-03T12:29:02.357Z,4.55
2018-02-03T12:31:29.813Z,4.47
2018-02-03T12:33:58.290Z,4.61
2018-02-03T12:36:26.057Z,4.49
2018-02-03T12:38:53.526Z,4.47
2018-02-03T12:41:20.985Z,4.54
2018-02-03T12:43:48.948Z,4.42
2018-02-03T12:46:16.396Z,4.37
2018-02-03T12:48:43.861Z,4.45
2018-02-03T12:51:11.610Z,4.71
2018-02-03T13:00:22.537Z,4.99
2018-02-03T13:02:49.980Z,4.68
2018-02-03T13:05:17.439Z,4.73
2018-02-03T13:07:45.148Z,4.99
2018-02-03T13:10:12.596Z,4.93
2018-02-03T13:12:40.068Z,4.89
2018-02-03T13:15:07.721Z,4.84
2018-02-03T13:17:35.177Z,5.03
2018-02-03T13:20:02.627Z,5.10
2018-02-03T13:22:30.528Z,4.98
2018-02-03T13:24:57.984Z,4.98
2018-02-03T13:27:27.667Z,5.02
2018-02-03T13:29:55.248Z,4.92
2018-02-03T13:32:22.696Z,4.92
2018-02-03T13:34:50.148Z,4.79
2018-02-03T13:37:18.049Z,4.85
2018-02-03T13:39:45.500Z,4.93
2018-02-03T13:42:12.951Z,4.88
2018-02-03T13:44:40.660Z,4.88
2018-02-03T13:47:08.125Z,5.02
2018-02-03T13:49:35.582Z,5.04
2018-02-03T13:52:03.418Z,4.94
2018-02-03T13:54:30.864Z,5.31
2018-02-03T13:56:58.320Z,5.11
2018-02-03T13:59:26.120Z,5.13
2018-02-03T14:01:53.585Z,5.10
2018-02-03T14:04:21.039Z,5.26
2018-02-03T14:06:48.619Z,5.24
2018-02-03T14:09:16.067Z,5.16
2018-02-03T14:11:43.520Z,5.10
2018-02-03T14:14:11.482Z,5.22
2018-02-03T14:16:38.932Z,5.14
2018-02-03T14:19:06.384Z,5.25
2018-02-03T14:21:34.480Z,5.24
2018-02-03T14:24:07.469Z,5.30
2018-02-03T14:26:35.245Z,5.20
2018-02-03T14:29:03.069Z,5.40
2018-02-03T14:31:30.515Z,5.20
2018-02-03T14:33:58.256Z,5.19
2018-02-03T14:36:25.704Z,5.08
2018-02-03T14:38:53.159Z,4.97
2018-02-03T14:41:20.837Z,5.00
2018-02-03T14:43:48.281Z,4.94
2018-02-03T14:46:15.730Z,4.97
2018-02-03T14:48:43.607Z,4.86
2018-02-03T14:51:11.056Z,4.94
2018-02-03T14:53:38.505Z,4.81
2018-02-03T14:56:06.205Z,4.82
2018-02-03T14:58:33.653Z,4.99
2018-02-03T15:01:01.104Z,4.78
2018-02-03T15:03:28.977Z,4.86
2018-02-03T15:05:56.426Z,4.81
2018-02-03T15:08:23.884Z,4.78
2018-02-03T15:10:51.976Z,4.74
2018-02-03T15:13:19.428Z,4.71
2018-02-03T15:15:46.897Z,4.55
2018-02-03T15:18:14.649Z,4.67
2018-02-03T15:20:42.101Z,4.64
2018-02-03T15:23:09.553Z,4.64
2018-02-03T15:25:37.345Z,4.67
2018-02-03T15:28:04.792Z,4.71
2018-02-03T15:30:32.944Z,4.65
2018-02-03T15:33:00.696Z,5.29
2018-02-03T15:35:28.160Z,4.87
2018-02-03T15:37:55.611Z,4.68
2018-02-03T15:40:23.651Z,4.56
2018-02-03T15:42:51.114Z,4.58
2018-02-03T15:45:18.568Z,4.56
2018-02-03T15:47:46.323Z,4.57
2018-02-03T15:50:13.798Z,4.46
2018-02-03T15:52:41.252Z,4.44
2018-02-03T15:55:09.322Z,4.37
2018-02-03T15:57:36.770Z,4.42
2018-02-03T16:00:04.230Z,4.36
2018-02-03T16:02:32.309Z,4.33
2018-02-03T16:04:59.767Z,4.28
2018-02-03T16:07:27.216Z,4.30
2018-02-03T16:09:55.016Z,4.23
2018-02-03T16:12:22.497Z,4.18
2018-02-03T16:14:49.947Z,4.16
2018-02-03T16:17:17.705Z,4.08
2018-02-03T16:19:45.156Z,4.11
2018-02-03T16:22:12.604Z,4.15
2018-02-03T16:24:40.700Z,4.05
2018-02-03T16:27:08.152Z,4.04
2018-02-03T16:29:35.604Z,4.06
2018-02-03T16:32:04.448Z,4.00
2018-02-03T16:34:31.920Z,3.97
2018-02-03T16:36:59.375Z,3.95
2018-02-03T16:39:27.597Z,3.98
2018-02-03T16:41:55.052Z,3.87
2018-02-03T16:44:22.505Z,3.92
2018-02-03T16:46:50.177Z,3.89
2018-02-03T16:49:17.630Z,3.87
2018-02-03T16:51:45.078Z,3.86
2018-02-03T16:54:12.964Z,3.83
2018-02-03T16:56:42.361Z,3.83
2018-02-03T16:59:09.829Z,3.82
2018-02-03T17:01:37.493Z,3.81
2018-02-03T17:04:04.942Z,3.75
2018-02-03T17:06:32.386Z,3.83
2018-02-03T17:09:00.188Z,3.84
2018-02-03T17:11:27.645Z,3.78
2018-02-03T17:13:55.090Z,3.82
2018-02-03T17:16:23.175Z,3.84
2018-02-03T17:18:50.624Z,3.83
2018-02-03T17:21:18.088Z,3.86
2018-02-03T17:23:45.885Z,3.87
2018-02-03T17:26:13.328Z,3.94
2018-02-03T17:28:40.810Z,3.89
2018-02-03T17:31:08.556Z,3.90
2018-02-03T17:33:36.402Z,3.92
2018-02-03T17:36:03.844Z,3.89
2018-02-03T17:38:51.141Z,3.82
2018-02-03T17:41:18.603Z,3.82
2018-02-03T17:43:46.046Z,3.85
2018-02-03T17:46:19.348Z,3.94
2018-02-03T17:48:46.809Z,3.75
2018-02-03T17:51:14.257Z,3.74
2018-02-03T17:53:42.078Z,3.75
2018-02-03T17:56:14.972Z,3.75
2018-02-03T17:58:42.425Z,3.75
2018-02-03T18:01:10.344Z,3.82
2018-02-03T18:03:37.798Z,3.78
2018-02-03T18:06:05.257Z,3.84
2018-02-03T18:08:33.532Z,3.74
2018-02-03T18:11:00.979Z,3.74
2018-02-03T18:13:28.437Z,3.79
2018-02-03T18:15:56.275Z,3.71
2018-02-03T18:18:23.725Z,3.70
2018-02-03T18:20:51.180Z,3.80
2018-02-03T18:23:19.004Z,3.68
2018-02-03T18:25:46.452Z,3.69
2018-02-03T18:28:13.903Z,3.65
2018-02-03T18:30:41.700Z,3.67
2018-02-03T18:33:09.153Z,3.61
2018-02-03T18:35:38.835Z,3.57
2018-02-03T18:38:06.529Z,3.59
2018-02-03T18:40:33.968Z,3.51
2018-02-03T18:43:01.430Z,3.52
2018-02-03T18:45:41.011Z,3.59
2018-02-03T18:48:08.466Z,3.62
2018-02-03T18:50:35.912Z,3.58
2018-02-03T18:53:04.190Z,3.62
2018-02-03T18:55:31.639Z,3.40
2018-02-03T18:57:59.094Z,2.72
2018-02-03T19:00:26.877Z,2.43
2018-02-03T19:02:54.331Z,2.15
2018-02-03T19:05:21.786Z,2.25
2018-02-03T19:07:49.465Z,2.23
2018-02-03T19:10:16.913Z,2.17
2018-02-03T19:12:44.368Z,2.20
2018-02-03T19:15:12.268Z,2.25
2018-02-03T19:17:39.721Z,2.20
2018-02-03T19:20:07.175Z,2.25
2018-02-03T19:22:34.950Z,2.37
2018-02-03T19:25:02.419Z,2.37
2018-02-03T19:27:29.870Z,2.30
2018-02-03T19:29:57.625Z,2.30
2018-02-03T19:32:25.075Z,2.36
2018-02-03T19:34:52.528Z,2.40
2018-02-03T19:37:20.950Z,2.33
2018-02-03T19:39:48.404Z,2.34
2018-02-03T19:42:17.045Z,2.42
2018-02-03T19:44:44.840Z,2.34
2018-02-03T19:47:12.382Z,2.39
2018-02-03T19:49:39.836Z,2.36
2018-02-03T19:52:07.545Z,2.40
2018-02-03T19:54:35.005Z,2.43
2018-02-03T19:57:02.460Z,2.43
2018-02-03T19:59:30.533Z,2.36
2018-02-03T20:01:57.993Z,2.38
2018-02-03T20:04:25.444Z,2.39
2018-02-03T20:06:53.222Z,2.36
2018-02-03T20:09:20.678Z,2.34
2018-02-03T20:11:48.145Z,2.40
2018-02-03T20:14:15.960Z,2.37
2018-02-03T20:16:43.415Z,2.35
2018-02-03T20:19:10.885Z,2.46
2018-02-03T20:21:38.594Z,2.48
2018-02-03T20:24:06.049Z,2.42
2018-02-03T20:26:33.505Z,2.37
2018-02-03T20:29:01.376Z,2.37
2018-02-03T20:31:28.831Z,2.37
2018-02-03T20:33:56.289Z,2.38
2018-02-03T20:36:24.273Z,2.42
2018-02-03T20:38:52.432Z,2.54
2018-02-03T20:41:19.902Z,2.62
2018-02-03T20:43:47.668Z,2.65
2018-02-03T20:46:15.111Z,2.70
2018-02-03T20:48:42.572Z,2.66
2018-02-03T20:51:10.268Z,2.72
2018-02-03T20:53:37.724Z,2.65
2018-02-03T20:56:05.193Z,2.66
2018-02-03T20:58:32.945Z,2.76
2018-02-03T21:01:00.413Z,2.74
2018-02-03T21:03:27.865Z,2.71
2018-02-03T21:05:55.631Z,2.65
2018-02-03T21:08:23.080Z,2.73
2018-02-03T21:10:50.533Z,2.69
2018-02-03T21:13:18.345Z,2.76
2018-02-03T21:15:45.804Z,2.79
2018-02-03T21:18:13.268Z,2.71
2018-02-03T21:20:41.020Z,2.74
2018-02-03T21:23:08.476Z,2.76
2018-02-03T21:25:35.952Z,2.71
2018-02-03T21:28:03.997Z,2.76
2018-02-03T21:30:31.453Z,2.85
2018-02-03T21:32:58.925Z,2.68
2018-02-03T21:35:26.692Z,2.83
2018-02-03T21:37:54.144Z,2.78
2018-02-03T21:40:23.538Z,2.80
2018-02-03T21:42:51.257Z,2.82
2018-02-03T21:45:18.913Z,2.76
2018-02-03T21:47:46.392Z,2.82
2018-02-03T21:50:14.216Z,2.83
2018-02-03T21:52:41.682Z,2.95
2018-02-03T21:55:09.136Z,2.97
2018-02-03T21:57:36.896Z,2.89
2018-02-03T22:00:04.367Z,2.98
2018-02-03T22:02:31.832Z,2.90
2018-02-03T22:04:59.580Z,2.88
2018-02-03T22:07:27.033Z,2.87
2018-02-03T22:09:54.559Z,2.68
2018-02-03T22:12:22.279Z,2.68
2018-02-03T22:14:49.740Z,2.69
2018-02-03T22:17:17.244Z,2.65
2018-02-03T22:19:44.956Z,2.73
2018-02-03T22:22:12.416Z,2.63
2018-02-03T22:24:39.868Z,2.67
2018-02-03T22:27:07.672Z,2.56
2018-02-03T22:29:35.136Z,2.80
2018-02-03T22:32:02.589Z,2.63
2018-02-03T22:34:30.348Z,2.71
2018-02-03T22:36:57.804Z,2.60
2018-02-03T22:39:25.282Z,2.61
2018-02-03T22:41:53.648Z,2.55
2018-02-03T22:44:21.141Z,2.55
2018-02-03T22:46:48.604Z,2.50
2018-02-03T22:49:16.338Z,2.35
2018-02-03T22:51:43.795Z,2.30
2018-02-03T22:54:11.266Z,2.30
2018-02-03T22:56:39.014Z,2.20
2018-02-03T22:59:06.484Z,2.22
2018-02-03T23:01:33.936Z,2.22
2018-02-03T23:04:01.649Z,2.21
2018-02-03T23:06:29.106Z,2.12
2018-02-03T23:08:56.563Z,2.07
2018-02-03T23:11:24.396Z,2.09
2018-02-03T23:13:51.853Z,2.08
2018-02-03T23:16:19.312Z,2.01
2018-02-03T23:18:47.377Z,1.96
2018-02-03T23:21:14.848Z,1.92
2018-02-03T23:23:42.317Z,1.94
2018-02-03T23:26:10.251Z,1.96
2018-02-03T23:28:37.708Z,1.88
2018-02-03T23:31:05.167Z,1.89
2018-02-03T23:33:33.060Z,1.93
2018-02-03T23:36:00.507Z,1.96
2018-02-03T23:38:27.955Z,1.91
2018-02-03T23:40:55.755Z,1.98
2018-02-03T23:43:23.584Z,1.81
2018-02-03T23:45:51.039Z,1.80
2018-02-03T23:48:19.355Z,1.76
2018-02-03T23:50:46.809Z,1.82
2018-02-03T23:53:14.252Z,1.80
2018-02-03T23:55:42.041Z,1.78
2018-02-03T23:58:09.496Z,1.77
